Time;durP1;ratioP1;P1;durP2;ratioP2;P2;SDS_P1;SDS_P2;PMS_P1;PMS_P2;Temp;Humidity;BMP_temperature;BMP_pressure;BME280_temperature;BME280_humidity;BME280_pressure;Samples;Min_cycle;Max_cycle;Signal;HPM_P1;HPM_P2
2022/11/26 00:02:23;;;;;;;124.05;42.23;;;;;;;3.21;97.17;101252.31;1805523;78;25746;-80
2022/11/26 00:04:51;;;;;;;138.35;45.45;;;;;;;3.18;97.35;101249.91;1796498;78;26581;-80
2022/11/26 00:07:27;;;;;;;136.57;42.53;;;;;;;3.15;97.20;101250.98;1817837;77;26392;-80
2022/11/26 00:09:55;;;;;;;142.05;44.73;;;;;;;3.11;97.11;101253.05;1812075;78;28140;-78
2022/11/26 00:12:29;;;;;;;116.45;43.58;;;;;;;3.09;97.18;101251.48;1800815;78;26393;-79
2022/11/26 00:14:56;;;;;;;127.15;45.05;;;;;;;3.08;97.23;101253.76;1784114;78;25749;-79
2022/11/26 00:17:22;;;;;;;121.13;43.45;;;;;;;3.04;97.18;101249.20;1812843;78;26461;-79
2022/11/26 00:19:49;;;;;;;120.95;45.28;;;;;;;3.04;97.35;101250.53;1814728;78;25275;-79
2022/11/26 00:22:31;;;;;;;115.28;42.60;;;;;;;3.05;97.44;101252.70;1804099;78;27441;-78
2022/11/26 00:24:58;;;;;;;125.45;43.83;;;;;;;3.06;97.46;101253.89;1801546;78;26427;-79
2022/11/26 00:27:27;;;;;;;126.50;43.63;;;;;;;3.05;97.35;101256.67;1792569;78;25853;-79
2022/11/26 00:29:54;;;;;;;113.30;40.75;;;;;;;3.05;97.44;101260.64;1800610;78;26624;-78
2022/11/26 00:32:24;;;;;;;118.67;44.03;;;;;;;3.05;97.43;101261.96;1817356;78;26476;-78
2022/11/26 00:34:52;;;;;;;110.83;43.60;;;;;;;3.02;97.32;101266.16;1819959;78;28264;-79
2022/11/26 00:37:29;;;;;;;120.13;43.52;;;;;;;3.01;97.45;101269.31;1799777;78;25963;-78
2022/11/26 00:39:56;;;;;;;121.75;44.25;;;;;;;3.01;97.40;101265.34;1793084;78;25753;-79
2022/11/26 00:42:24;;;;;;;106.17;43.20;;;;;;;3.02;97.39;101270.98;1772618;78;27228;-78
2022/11/26 00:44:51;;;;;;;111.80;42.85;;;;;;;3.01;97.35;101271.11;1812031;78;26473;-79
2022/11/26 00:47:17;;;;;;;116.77;43.35;;;;;;;3.02;97.50;101272.78;1782572;79;27453;-78
2022/11/26 00:49:43;;;;;;;121.35;43.20;;;;;;;3.02;97.44;101276.27;1751853;80;25915;-79
2022/11/26 00:52:24;;;;;;;108.35;44.40;;;;;;;3.02;97.44;101277.59;1736798;81;26549;-79
2022/11/26 00:54:51;;;;;;;106.75;42.45;;;;;;;3.01;97.38;101279.91;1756771;81;26644;-79
2022/11/26 00:57:17;;;;;;;109.60;42.40;;;;;;;3.01;97.41;101293.61;1764567;81;25847;-79
2022/11/26 00:59:43;;;;;;;109.97;42.98;;;;;;;3.00;97.46;101291.91;1762306;80;28267;-78
2022/11/26 01:02:09;;;;;;;98.45;42.83;;;;;;;2.98;97.40;101288.07;1766747;80;25905;-78
2022/11/26 01:04:36;;;;;;;118.62;45.28;;;;;;;2.98;97.43;101289.39;1761264;79;26266;-79
2022/11/26 01:07:02;;;;;;;107.43;43.70;;;;;;;2.99;97.44;101295.53;1729197;81;25844;-79
2022/11/26 01:09:28;;;;;;;112.22;44.67;;;;;;;2.98;97.36;101289.39;1739326;81;25991;-78
2022/11/26 01:11:55;;;;;;;112.05;44.30;;;;;;;2.98;97.53;101293.36;1733330;81;27299;-79
2022/11/26 01:14:22;;;;;;;110.03;42.08;;;;;;;2.98;97.45;101293.84;1740632;81;26445;-79
2022/11/26 01:16:52;;;;;;;125.07;43.87;;;;;;;2.98;97.40;101297.33;1744209;81;25796;-78
2022/11/26 01:19:18;;;;;;;105.87;43.40;;;;;;;2.96;97.35;101300.58;1739354;80;26937;-78
2022/11/26 01:21:46;;;;;;;115.75;39.92;;;;;;;2.95;97.46;101304.69;1746608;80;25770;-78
2022/11/26 01:24:12;;;;;;;105.97;40.03;;;;;;;2.93;97.40;101300.81;1727492;81;28654;-79
2022/11/26 01:26:42;;;;;;;111.52;43.40;;;;;;;2.92;97.46;101299.14;1769168;79;26375;-78
2022/11/26 01:29:17;;;;;;;95.38;40.03;;;;;;;2.90;97.52;101300.22;1759100;79;25943;-79
2022/11/26 01:31:44;;;;;;;103.32;39.80;;;;;;;2.90;97.69;101295.78;1759926;79;25991;-79
2022/11/26 01:34:11;;;;;;;99.37;38.23;;;;;;;2.92;97.71;101297.82;1758194;79;26623;-79
2022/11/26 01:36:39;;;;;;;104.17;39.08;;;;;;;2.93;97.71;101298.16;1737233;81;28700;-79
2022/11/26 01:39:16;;;;;;;111.05;41.15;;;;;;;2.90;97.57;101301.07;1745246;80;25950;-79
2022/11/26 01:42:17;;;;;;;104.07;39.58;;;;;;;2.91;97.76;101300.56;1723228;81;25856;-78
2022/11/26 01:44:43;;;;;;;;;;;;;;;2.92;97.78;101295.65;1767267;79;26433;-79
2022/11/26 01:47:29;;;;;;;105.92;40.50;;;;;;;2.92;97.77;101294.33;1765271;79;26348;-79
2022/11/26 01:50:36;;;;;;;105.75;42.23;;;;;;;2.90;97.82;101301.07;1766725;79;27459;-79
2022/11/26 01:53:27;;;;;;;101.90;41.10;;;;;;;2.90;97.84;101303.72;1760586;80;26192;-79
2022/11/26 01:56:08;;;;;;;110.35;40.45;;;;;;;2.91;97.96;101302.73;1767564;79;25760;-80
2022/11/26 01:58:42;;;;;;;106.78;41.48;;;;;;;2.90;97.93;101307.69;1760175;79;26175;-80
2022/11/26 02:01:09;;;;;;;106.30;43.15;;;;;;;2.90;97.90;101308.16;1761006;80;25955;-80
2022/11/26 02:03:56;;;;;;;102.10;37.58;;;;;;;2.91;97.86;101310.67;1763212;80;27413;-80
2022/11/26 02:06:28;;;;;;;113.95;40.95;;;;;;;2.91;97.78;101315.12;1724970;81;26505;-79
2022/11/26 02:08:55;;;;;;;99.95;38.13;;;;;;;2.90;97.82;101312.13;1766567;79;25892;-79
2022/11/26 02:11:23;;;;;;;103.15;40.03;;;;;;;2.91;97.97;101304.06;1759713;79;26344;-79
2022/11/26 02:13:54;;;;;;;96.72;40.17;;;;;;;2.92;97.82;101304.91;1757050;79;26457;-80
2022/11/26 02:16:41;;;;;;;101.78;38.60;;;;;;;2.93;97.96;101305.29;1740987;80;27412;-79
2022/11/26 02:19:37;;;;;;;105.47;38.60;;;;;;;2.94;97.88;101308.28;1742115;80;25272;-80
2022/11/26 02:22:30;;;;;;;104.72;40.95;;;;;;;2.90;97.59;101305.52;1743312;79;26525;-80
2022/11/26 02:25:40;;;;;;;111.90;40.03;;;;;;;2.90;97.87;101302.88;1789368;79;25819;-80
2022/11/26 02:28:33;;;;;;;92.25;38.70;;;;;;;2.92;97.93;101307.08;1766507;79;25953;-80
2022/11/26 02:31:08;;;;;;;100.25;38.00;;;;;;;2.94;97.96;101311.77;1734745;81;27489;-80
2022/11/26 02:33:46;;;;;;;102.25;39.40;;;;;;;2.92;97.88;101313.70;1750283;81;26135;-81
2022/11/26 02:36:18;;;;;;;117.82;40.58;;;;;;;2.90;97.82;101307.69;1747981;81;25760;-80
2022/11/26 02:38:44;;;;;;;113.37;39.98;;;;;;;2.90;97.87;101311.66;1747906;81;25877;-80
2022/11/26 02:41:10;;;;;;;116.47;42.03;;;;;;;2.90;97.98;101312.13;1746289;80;25872;-80
2022/11/26 02:43:38;;;;;;;112.75;40.65;;;;;;;2.92;98.06;101311.52;1747579;81;27528;-80
2022/11/26 02:46:10;;;;;;;129.05;41.30;;;;;;;2.93;98.02;101314.55;1786920;79;25272;-80
2022/11/26 02:48:41;;;;;;;101.22;39.58;;;;;;;2.90;97.86;101314.30;1762442;79;25787;-81
2022/11/26 02:51:15;;;;;;;118.10;43.20;;;;;;;2.88;97.84;101314.05;1737188;81;26414;-80
2022/11/26 02:53:44;;;;;;;114.32;40.25;;;;;;;2.87;97.91;101313.68;1762447;81;25884;-80
2022/11/26 02:56:20;;;;;;;122.90;42.50;;;;;;;2.86;97.89;101316.83;1773053;79;27460;-81
2022/11/26 02:58:50;;;;;;;118.25;42.75;;;;;;;2.83;97.87;101311.77;1762411;79;25750;-78
2022/11/26 03:01:27;;;;;;;119.62;43.50;;;;;;;2.84;98.01;101313.94;1762924;79;25285;-79
2022/11/26 03:03:52;;;;;;;113.35;39.55;;;;;;;2.81;98.02;101316.34;1761623;79;25830;-79
2022/11/26 03:06:20;;;;;;;118.13;42.38;;;;;;;2.81;98.04;101316.81;1817402;78;26445;-78
2022/11/26 03:08:46;;;;;;;125.00;44.27;;;;;;;2.81;98.12;101316.81;1800861;78;27439;-78
2022/11/26 03:11:13;;;;;;;131.07;43.38;;;;;;;2.79;98.12;101316.94;1806972;78;25720;-78
2022/11/26 03:13:39;;;;;;;137.15;43.92;;;;;;;2.76;98.07;101309.23;1795505;78;25956;-78
2022/11/26 03:16:06;;;;;;;124.95;42.60;;;;;;;2.74;98.08;101314.27;1770211;79;25768;-78
2022/11/26 03:18:32;;;;;;;131.05;41.55;;;;;;;2.70;98.09;101317.64;1764346;79;26211;-80
2022/11/26 03:20:59;;;;;;;125.42;43.00;;;;;;;2.68;98.13;101316.08;1738349;81;27476;-79
2022/11/26 03:23:25;;;;;;;114.90;42.38;;;;;;;2.66;98.29;101324.14;1749427;80;25749;-78
2022/11/26 03:25:52;;;;;;;118.50;43.40;;;;;;;2.65;98.49;101323.77;1744239;80;25819;-78
2022/11/26 03:28:18;;;;;;;113.05;43.92;;;;;;;2.64;98.50;101327.39;1704245;82;27111;-78
2022/11/26 03:30:44;;;;;;;119.35;43.38;;;;;;;2.68;98.81;101333.27;1770481;79;26137;-79
2022/11/26 03:33:11;;;;;;;113.80;42.20;;;;;;;2.71;98.80;101333.89;1793079;78;27433;-79
2022/11/26 03:35:37;;;;;;;121.40;43.95;;;;;;;2.69;98.59;101329.68;1786814;78;25523;-78
2022/11/26 03:38:03;;;;;;;114.75;42.03;;;;;;;2.72;98.71;101340.00;1811225;78;25857;-79
2022/11/26 03:40:29;;;;;;;114.57;42.43;;;;;;;2.70;98.54;101336.63;1793688;78;25874;-78
2022/11/26 03:42:56;;;;;;;117.75;41.60;;;;;;;2.72;98.74;101336.03;1803529;78;25975;-79
2022/11/26 03:45:22;;;;;;;109.67;42.43;;;;;;;2.73;98.64;101344.34;1806773;78;28267;-78
2022/11/26 03:47:49;;;;;;;121.17;42.05;;;;;;;2.73;98.45;101346.99;1800214;78;26507;-79
2022/11/26 03:50:15;;;;;;;127.02;47.00;;;;;;;2.72;98.56;101349.27;1799373;79;25825;-78
2022/11/26 03:52:41;;;;;;;116.60;42.58;;;;;;;2.73;98.69;101350.96;1808086;78;26433;-78
2022/11/26 03:55:08;;;;;;;112.88;39.75;;;;;;;2.72;98.52;101345.30;1802704;78;25903;-78
2022/11/26 03:57:35;;;;;;;117.82;43.02;;;;;;;2.72;98.44;101354.08;1813240;78;27449;-79
2022/11/26 04:00:02;;;;;;;102.62;40.92;;;;;;;2.73;98.72;101352.28;1809482;78;25783;-79
2022/11/26 04:02:30;;;;;;;101.05;41.80;;;;;;;2.76;98.72;101353.38;1764423;78;26373;-79
2022/11/26 04:04:56;;;;;;;114.32;41.65;;;;;;;2.76;98.61;101352.88;1801645;78;25757;-79
2022/11/26 04:07:22;;;;;;;103.50;40.90;;;;;;;2.75;98.46;101359.14;1805495;78;25795;-80
2022/11/26 04:09:48;;;;;;;100.15;38.00;;;;;;;2.76;98.48;101358.67;1790069;79;28273;-79
2022/11/26 04:12:15;;;;;;;107.47;38.78;;;;;;;2.74;98.24;101361.41;1797781;79;25703;-78
2022/11/26 04:14:41;;;;;;;101.95;36.50;;;;;;;2.72;98.29;101361.16;1799068;79;26418;-79
2022/11/26 04:17:07;;;;;;;81.22;32.15;;;;;;;2.71;98.13;101359.50;1790833;78;25829;-78
2022/11/26 04:19:34;;;;;;;78.40;30.10;;;;;;;2.71;98.07;101366.11;1800451;79;25890;-78
2022/11/26 04:22:00;;;;;;;81.37;31.27;;;;;;;2.71;98.03;101368.75;1783681;78;28244;-79
2022/11/26 04:24:27;;;;;;;85.85;32.40;;;;;;;2.68;97.85;101369.83;1814748;78;26550;-78
2022/11/26 04:26:53;;;;;;;80.57;31.75;;;;;;;2.65;97.69;101367.91;1787137;79;25811;-79
2022/11/26 04:29:19;;;;;;;78.17;33.78;;;;;;;2.61;97.57;101377.86;1805613;78;26543;-78
2022/11/26 04:31:47;;;;;;;78.40;30.52;;;;;;;2.57;97.64;101375.09;1791692;77;25920;-79
2022/11/26 04:34:13;;;;;;;77.37;33.67;;;;;;;2.56;97.74;101378.70;1805406;78;28281;-80
2022/11/26 04:36:39;;;;;;;73.55;29.95;;;;;;;2.54;97.72;101378.45;1796318;78;25901;-79
2022/11/26 04:39:06;;;;;;;74.00;31.35;;;;;;;2.53;97.70;101381.58;1807655;78;25813;-78
2022/11/26 04:41:32;;;;;;;63.40;27.95;;;;;;;2.53;97.71;101385.54;1791287;78;25955;-79
2022/11/26 04:43:58;;;;;;;72.87;29.35;;;;;;;2.50;97.35;101387.11;1807534;78;26099;-78
2022/11/26 04:46:25;;;;;;;71.97;29.87;;;;;;;2.47;97.29;101382.04;1801649;78;27453;-80
2022/11/26 04:48:51;;;;;;;78.37;30.27;;;;;;;2.44;96.97;101386.73;1812803;78;25731;-78
2022/11/26 04:51:17;;;;;;;67.82;28.15;;;;;;;2.45;97.33;101390.57;1810226;78;26411;-79
2022/11/26 04:53:43;;;;;;;71.12;30.68;;;;;;;2.49;97.41;101391.17;1808986;78;26543;-79
2022/11/26 04:56:10;;;;;;;70.62;29.60;;;;;;;2.46;97.22;101390.09;1792397;78;25813;-78
2022/11/26 04:58:36;;;;;;;77.58;30.02;;;;;;;2.47;97.29;101391.30;1806521;78;27444;-79
2022/11/26 05:01:03;;;;;;;67.20;28.38;;;;;;;2.45;97.02;101394.54;1764879;79;25940;-78
2022/11/26 05:03:29;;;;;;;64.17;28.35;;;;;;;2.38;96.58;101399.06;1746066;80;26576;-79
2022/11/26 05:05:55;;;;;;;66.20;28.67;;;;;;;2.33;96.54;101394.15;1750121;80;26390;-78
2022/11/26 05:08:22;;;;;;;68.83;30.85;;;;;;;2.35;96.98;101396.20;1702150;82;26524;-79
2022/11/26 05:10:53;;;;;;;63.23;27.98;;;;;;;2.37;96.94;101403.53;1763462;81;26922;-79
2022/11/26 05:13:19;;;;;;;;;;;;;;;2.35;96.92;101406.77;1758284;81;25857;-80
2022/11/26 05:15:45;;;;;;;73.60;28.30;;;;;;;2.30;96.57;101419.48;1758275;79;26019;-79
2022/11/26 05:18:12;;;;;;;68.05;30.75;;;;;;;2.21;96.66;101416.19;1804532;78;25842;-79
2022/11/26 05:20:38;;;;;;;74.58;31.73;;;;;;;2.20;96.91;101414.52;1741269;81;25888;-78
2022/11/26 05:23:04;;;;;;;70.42;30.70;;;;;;;2.20;97.16;101414.02;1787200;79;28305;-78
2022/11/26 05:25:30;;;;;;;75.62;31.93;;;;;;;2.22;97.19;101415.24;1754205;79;25905;-79
2022/11/26 05:27:57;;;;;;;67.20;31.10;;;;;;;2.22;97.26;101425.31;1765764;79;25725;-79
2022/11/26 05:30:23;;;;;;;79.97;31.75;;;;;;;2.24;97.43;101426.08;1756105;79;25821;-79
2022/11/26 05:32:49;;;;;;;82.30;30.02;;;;;;;2.24;97.29;101427.39;1750087;80;25868;-78
2022/11/26 05:35:16;;;;;;;79.70;31.62;;;;;;;2.23;97.16;101428.80;1768208;79;27458;-79
2022/11/26 05:37:42;;;;;;;77.55;31.00;;;;;;;2.22;97.19;101436.39;1770008;79;26533;-79
2022/11/26 05:40:10;;;;;;;71.53;27.77;;;;;;;2.20;97.14;101439.63;1758591;79;25840;-79
2022/11/26 05:42:37;;;;;;;80.50;29.95;;;;;;;2.18;97.06;101441.03;1756813;79;26519;-78
2022/11/26 05:45:04;;;;;;;84.10;32.08;;;;;;;2.09;96.68;101452.30;1744801;80;25810;-79
2022/11/26 05:47:31;;;;;;;75.87;30.97;;;;;;;2.12;97.19;101443.28;1732822;81;27469;-79
2022/11/26 05:49:57;;;;;;;77.78;29.80;;;;;;;2.15;97.12;101449.21;1764903;79;26197;-79
2022/11/26 05:52:24;;;;;;;82.90;31.37;;;;;;;2.16;97.07;101448.23;1748715;80;26329;-79
2022/11/26 05:54:50;;;;;;;80.72;30.52;;;;;;;2.16;96.75;101451.38;1735885;81;25884;-79
2022/11/26 05:57:17;;;;;;;70.42;29.67;;;;;;;2.16;96.80;101456.16;1748864;81;25750;-79
2022/11/26 05:59:43;;;;;;;81.65;28.98;;;;;;;2.14;96.47;101459.40;1748361;80;27473;-78
2022/11/26 06:02:09;;;;;;;75.85;28.52;;;;;;;2.10;96.27;101465.87;1744950;81;25841;-79
2022/11/26 06:04:36;;;;;;;65.47;26.45;;;;;;;2.05;95.88;101465.84;1748303;81;25796;-79
2022/11/26 06:07:02;;;;;;;76.50;28.80;;;;;;;1.99;95.85;101467.62;1739147;81;25978;-80
2022/11/26 06:09:28;;;;;;;75.32;25.75;;;;;;;1.95;95.87;101467.45;1740391;81;25968;-79
2022/11/26 06:11:55;;;;;;;84.32;28.05;;;;;;;1.96;96.06;101465.19;1750739;80;28292;-79
2022/11/26 06:14:21;;;;;;;77.00;28.38;;;;;;;1.95;95.93;101466.97;1765728;79;25742;-79
2022/11/26 06:16:47;;;;;;;75.22;27.95;;;;;;;1.98;96.33;101465.91;1756837;79;26459;-79
2022/11/26 06:19:14;;;;;;;82.40;29.65;;;;;;;1.99;96.02;101473.72;1751111;81;25981;-79
2022/11/26 06:21:40;;;;;;;83.78;28.62;;;;;;;2.01;96.24;101479.73;1742921;81;25812;-80
2022/11/26 06:24:06;;;;;;;80.12;28.83;;;;;;;2.05;96.23;101483.84;1733502;81;27472;-79
2022/11/26 06:26:33;;;;;;;77.22;29.02;;;;;;;2.09;96.54;101485.81;1743952;80;25875;-79
2022/11/26 06:28:59;;;;;;;80.53;30.88;;;;;;;2.15;96.66;101496.78;1753020;79;25834;-79
2022/11/26 06:31:25;;;;;;;81.08;30.88;;;;;;;2.17;96.62;101501.47;1798542;78;25807;-78
2022/11/26 06:33:55;;;;;;;79.82;30.62;;;;;;;2.22;96.77;101496.67;1800317;78;25747;-79
2022/11/26 06:36:22;;;;;;;86.20;30.30;;;;;;;2.26;96.74;101500.81;1798439;78;27471;-79
2022/11/26 06:38:49;;;;;;;76.47;29.98;;;;;;;2.29;96.67;101501.89;1800609;78;26406;-78
2022/11/26 06:41:15;;;;;;;79.50;30.10;;;;;;;2.32;96.58;101500.36;1800134;78;25785;-79
2022/11/26 06:43:42;;;;;;;84.72;28.52;;;;;;;2.33;96.27;101502.03;1796479;78;26583;-78
2022/11/26 06:46:10;;;;;;;78.10;28.05;;;;;;;2.32;96.07;101507.44;1799530;79;25839;-79
2022/11/26 06:48:38;;;;;;;65.20;27.22;;;;;;;2.29;95.80;101511.62;1792054;78;28240;-79
2022/11/26 06:51:13;;;;;;;72.62;26.55;;;;;;;2.21;95.50;101510.02;1804332;78;26500;-79
2022/11/26 06:53:40;;;;;;;72.15;27.15;;;;;;;2.12;95.34;101514.16;1797244;78;25715;-80
2022/11/26 06:56:12;;;;;;;82.75;28.92;;;;;;;2.10;95.75;101520.52;1795513;78;25752;-79
2022/11/26 06:58:38;;;;;;;71.42;27.52;;;;;;;2.06;95.61;101523.86;1781457;78;25516;-80
2022/11/26 07:01:11;;;;;;;70.65;27.73;;;;;;;2.01;95.76;101529.13;1767460;79;27606;-80
2022/11/26 07:03:38;;;;;;;73.57;28.50;;;;;;;2.01;96.02;101533.09;1742719;80;25342;-80
2022/11/26 07:06:05;;;;;;;72.17;26.93;;;;;;;2.04;96.25;101530.20;1735042;81;25786;-80
2022/11/26 07:08:31;;;;;;;76.25;26.57;;;;;;;2.06;96.23;101529.61;1772874;79;26106;-79
2022/11/26 07:11:03;;;;;;;70.08;26.95;;;;;;;2.06;96.15;101540.19;1734285;81;26409;-79
2022/11/26 07:13:29;;;;;;;70.08;27.87;;;;;;;2.08;96.43;101535.16;1752320;80;27472;-80
2022/11/26 07:15:55;;;;;;;77.85;29.25;;;;;;;2.13;96.35;101538.80;1749014;80;25734;-80
2022/11/26 07:18:21;;;;;;;83.52;28.57;;;;;;;2.05;95.56;101541.97;1707086;82;25821;-79
2022/11/26 07:20:48;;;;;;;75.47;28.80;;;;;;;1.99;95.44;101541.09;1753380;80;25881;-79
2022/11/26 07:23:14;;;;;;;74.05;29.25;;;;;;;1.95;95.69;101542.27;1764122;79;26046;-80
2022/11/26 07:25:40;;;;;;;80.65;29.32;;;;;;;1.94;95.83;101542.39;1753440;79;27537;-80
2022/11/26 07:28:06;;;;;;;80.40;29.77;;;;;;;1.96;96.02;101544.45;1759116;79;25760;-79
2022/11/26 07:30:33;;;;;;;75.12;27.25;;;;;;;1.99;96.29;101547.70;1754149;81;26624;-80
2022/11/26 07:32:59;;;;;;;76.20;26.55;;;;;;;2.04;96.52;101552.20;1757490;79;26526;-80
2022/11/26 07:35:25;;;;;;;75.08;26.70;;;;;;;2.08;96.45;101548.37;1762575;80;25843;-80
2022/11/26 07:37:52;;;;;;;67.80;25.48;;;;;;;2.12;96.40;101555.59;1757064;79;28420;-81
2022/11/26 07:40:18;;;;;;;68.97;26.12;;;;;;;2.09;96.10;101561.12;1766457;79;25855;-79
2022/11/26 07:42:45;;;;;;;67.72;24.77;;;;;;;2.09;96.12;101565.08;1753309;79;26079;-80
2022/11/26 07:45:11;;;;;;;78.37;28.32;;;;;;;2.06;95.98;101566.61;1750392;81;25877;-80
2022/11/26 07:47:37;;;;;;;66.35;25.23;;;;;;;2.05;96.22;101566.27;1746490;81;25925;-80
2022/11/26 07:50:05;;;;;;;66.60;26.12;;;;;;;2.04;96.17;101569.37;1757456;79;28123;-79
2022/11/26 07:52:31;;;;;;;69.15;25.35;;;;;;;2.05;96.20;101575.51;1796536;78;25745;-80
2022/11/26 07:54:58;;;;;;;68.67;26.17;;;;;;;2.07;96.22;101574.45;1770960;79;25943;-79
2022/11/26 07:57:24;;;;;;;73.50;29.10;;;;;;;2.09;96.30;101573.02;1746527;81;26572;-86
2022/11/26 07:59:51;;;;;;;68.90;27.58;;;;;;;2.12;96.37;101576.27;1753795;80;25349;-87
2022/11/26 08:02:17;;;;;;;71.60;27.17;;;;;;;2.14;96.17;101580.12;1758811;80;27440;-88
2022/11/26 08:04:44;;;;;;;65.20;25.23;;;;;;;2.16;96.25;101579.56;1745740;80;25309;-86
2022/11/26 08:07:10;;;;;;;66.33;25.60;;;;;;;2.18;96.19;101575.01;1768502;79;25330;-87
2022/11/26 08:09:36;;;;;;;62.15;24.30;;;;;;;2.18;96.15;101575.01;1734063;81;26021;-84
2022/11/26 08:12:03;;;;;;;62.95;24.85;;;;;;;2.17;95.87;101578.12;1748766;80;25906;-86
2022/11/26 08:14:32;;;;;;;66.40;25.95;;;;;;;2.17;95.89;101579.91;1746399;81;27445;-87
2022/11/26 08:17:01;;;;;;;70.95;26.65;;;;;;;2.17;96.04;101586.05;1751526;79;25812;-93
2022/11/26 08:19:44;;;;;;;;;;;;;;;;;;;;;
2022/11/26 08:22:00;;;;;;;67.67;24.72;;;;;;;2.18;96.09;101587.72;1715619;81;25680;-87
2022/11/26 08:24:29;;;;;;;65.85;27.48;;;;;;;2.16;95.86;101587.48;1738231;81;25897;-87
2022/11/26 08:26:59;;;;;;;67.22;25.57;;;;;;;2.15;95.95;101590.60;1742669;80;27455;-90
2022/11/26 08:29:30;;;;;;;66.20;24.30;;;;;;;2.15;96.00;101593.25;1743563;81;25767;-90
2022/11/26 08:31:56;;;;;;;70.50;25.80;;;;;;;2.16;95.99;101593.59;1751735;80;25300;-84
2022/11/26 08:34:22;;;;;;;64.97;26.68;;;;;;;2.15;95.77;101597.67;1765910;79;26080;-85
2022/11/26 08:36:48;;;;;;;65.42;25.40;;;;;;;2.12;95.73;101592.59;1758839;79;25626;-87
2022/11/26 08:39:16;;;;;;;74.05;27.20;;;;;;;2.10;95.80;101597.15;1762104;81;27436;-86
2022/11/26 08:41:43;;;;;;;65.47;26.62;;;;;;;2.09;95.98;101604.26;1738327;81;25787;-87
2022/11/26 08:44:10;;;;;;;70.40;29.27;;;;;;;2.13;96.20;101603.55;1738661;81;25654;-86
2022/11/26 08:46:39;;;;;;;74.07;28.52;;;;;;;2.17;96.48;101604.55;1740432;81;26779;-87
2022/11/26 08:49:08;;;;;;;69.15;27.58;;;;;;;2.20;96.40;101606.95;1728626;81;25893;-84
2022/11/26 08:51:35;;;;;;;73.02;28.05;;;;;;;2.20;96.13;101604.81;1734603;81;27468;-88
2022/11/26 08:54:01;;;;;;;76.10;29.35;;;;;;;2.16;95.62;101609.45;1717539;81;25826;-89
2022/11/26 08:56:30;;;;;;;76.28;29.75;;;;;;;2.13;95.97;101610.16;1748948;79;26386;-91
2022/11/26 08:59:02;;;;;;;81.95;29.23;;;;;;;2.17;96.28;101614.27;1764379;79;25655;-89
2022/11/26 09:01:33;;;;;;;70.22;27.50;;;;;;;2.17;96.25;101619.09;1754975;79;25320;-86
2022/11/26 09:04:03;;;;;;;74.55;27.20;;;;;;;2.16;96.09;101618.70;1741684;81;26642;-87
2022/11/26 09:06:33;;;;;;;82.42;29.60;;;;;;;2.15;95.87;101622.31;1758826;79;25848;-88
2022/11/26 09:09:12;;;;;;;77.30;30.02;;;;;;;2.14;95.70;101619.76;1736606;81;25826;-85
2022/11/26 09:11:55;;;;;;;86.25;30.90;;;;;;;2.08;95.66;101630.30;1758515;80;26966;-88
2022/11/26 09:14:24;;;;;;;90.22;31.77;;;;;;;2.09;95.94;101629.83;1727747;81;25810;-88
2022/11/26 09:16:52;;;;;;;87.30;30.08;;;;;;;2.08;95.91;101628.12;1740262;80;27476;-84
2022/11/26 09:19:19;;;;;;;87.85;30.62;;;;;;;2.06;95.82;101625.59;1774041;79;25793;-86
2022/11/26 09:21:46;;;;;;;94.25;33.65;;;;;;;2.01;95.60;101628.20;1767496;79;25788;-80
2022/11/26 09:24:15;;;;;;;94.60;32.58;;;;;;;2.01;95.92;101632.17;1768936;81;25889;-84
2022/11/26 09:26:42;;;;;;;93.12;33.63;;;;;;;1.97;95.54;101638.59;1764253;81;25855;-87
2022/11/26 09:29:14;;;;;;;90.65;31.27;;;;;;;1.95;95.69;101637.86;1763661;79;27466;-85
2022/11/26 09:31:43;;;;;;;94.35;33.45;;;;;;;1.95;95.94;101636.53;1754382;79;25868;-87
2022/11/26 09:34:12;;;;;;;92.53;31.02;;;;;;;1.97;96.10;101636.80;1754383;79;25906;-85
2022/11/26 09:36:38;;;;;;;85.87;30.17;;;;;;;2.01;96.21;101634.81;1774301;79;26233;-87
2022/11/26 09:39:04;;;;;;;95.53;33.83;;;;;;;2.01;96.03;101639.59;1773215;79;25918;-87
2022/11/26 09:42:00;;;;;;;82.57;31.60;;;;;;;2.02;95.97;101631.20;1764389;79;27302;-87
2022/11/26 09:45:06;;;;;;;89.87;30.40;;;;;;;1.99;95.69;101637.53;1765960;79;26510;-86
2022/11/26 09:47:46;;;;;;;93.65;34.30;;;;;;;2.00;95.82;101633.96;1760178;79;25336;-88
2022/11/26 09:50:21;;;;;;;81.57;30.50;;;;;;;2.07;96.23;101643.63;1756225;79;26420;-85
2022/11/26 09:53:18;;;;;;;79.90;29.75;;;;;;;2.11;96.21;101641.98;1768398;80;25881;-86
2022/11/26 09:55:49;;;;;;;87.70;31.70;;;;;;;2.14;96.28;101648.36;1770234;80;27620;-83
2022/11/26 09:58:41;;;;;;;;;;;;;;;2.12;95.83;101650.27;1767900;79;25965;-85
2022/11/26 10:01:16;;;;;;;84.37;29.87;;;;;;;2.13;95.75;101651.97;1766031;81;25642;-94
2022/11/26 10:03:43;;;;;;;97.33;34.48;;;;;;;2.07;95.43;101658.16;1752691;79;25755;-90
2022/11/26 10:06:31;;;;;;;95.92;34.53;;;;;;;2.03;95.64;101658.83;1761135;79;25602;-88
2022/11/26 10:09:27;;;;;;;83.33;31.52;;;;;;;2.01;95.64;101655.45;1728279;81;27549;-87
2022/11/26 10:12:20;;;;;;;89.10;32.10;;;;;;;1.99;95.46;101662.64;1734028;81;25272;-85
2022/11/26 10:15:13;;;;;;;80.40;31.68;;;;;;;1.98;95.63;101661.44;1735932;81;25319;-84
2022/11/26 10:17:51;;;;;;;84.17;30.95;;;;;;;1.98;95.61;101666.25;1755296;81;25922;-82
2022/11/26 10:20:40;;;;;;;89.60;31.90;;;;;;;2.01;95.94;101666.02;1755484;81;25608;-87
2022/11/26 10:23:37;;;;;;;83.65;29.90;;;;;;;2.02;95.87;101666.88;1766553;79;28540;-84
2022/11/26 10:26:13;;;;;;;83.70;30.45;;;;;;;2.02;95.93;101669.52;1763464;79;25317;-86
2022/11/26 10:28:47;;;;;;;93.58;32.93;;;;;;;2.04;96.00;101668.93;1723366;81;26372;-88
2022/11/26 10:31:26;;;;;;;108.72;43.92;;;;;;;2.05;95.97;101669.31;1757179;80;26532;-88
2022/11/26 10:33:57;;;;;;;152.17;77.95;;;;;;;2.09;96.12;101668.15;1772529;79;26156;-84
2022/11/26 10:36:35;;;;;;;121.82;54.48;;;;;;;2.15;96.37;101665.92;1731842;81;27542;-82
2022/11/26 10:39:01;;;;;;;192.65;92.82;;;;;;;2.18;96.23;101664.37;1761791;79;26490;-83
2022/11/26 10:41:33;;;;;;;118.60;50.23;;;;;;;2.17;95.60;101664.02;1749821;80;25686;-82
2022/11/26 10:44:38;;;;;;;104.03;45.05;;;;;;;2.12;95.11;101664.80;1748418;81;26642;-83
2022/11/26 10:47:29;;;;;;;118.57;51.23;;;;;;;2.09;95.29;101669.00;1737852;81;25830;-84
2022/11/26 10:50:10;;;;;;;109.07;49.50;;;;;;;2.08;95.40;101665.98;1740456;81;28490;-84
2022/11/26 10:52:37;;;;;;;;;;;;;;;2.08;95.36;101672.58;1770943;79;25963;-84
2022/11/26 10:55:29;;;;;;;95.87;43.58;;;;;;;2.07;95.20;101676.19;1742067;81;25324;-82
2022/11/26 10:58:02;;;;;;;83.80;34.83;;;;;;;2.07;95.49;101674.02;1739005;81;25791;-83
2022/11/26 11:00:52;;;;;;;94.97;40.38;;;;;;;2.13;95.60;101673.59;1737656;81;25805;-82
2022/11/26 11:03:47;;;;;;;82.83;34.33;;;;;;;2.18;95.60;101673.63;1749903;80;27639;-88
2022/11/26 11:06:27;;;;;;;79.42;30.45;;;;;;;2.23;95.59;101672.84;1732839;80;25726;-83
2022/11/26 11:08:54;;;;;;;96.85;39.50;;;;;;;2.26;95.05;101682.36;1727649;81;25908;-83
2022/11/26 11:11:25;;;;;;;91.28;35.73;;;;;;;2.22;94.92;101683.53;1755790;81;25877;-83
2022/11/26 11:13:52;;;;;;;89.83;44.67;;;;;;;2.21;94.87;101689.75;1750126;81;25318;-82
2022/11/26 11:16:28;;;;;;;68.45;30.37;;;;;;;2.20;94.88;101690.22;1762755;79;27457;-83
2022/11/26 11:19:01;;;;;;;76.85;33.25;;;;;;;2.21;94.54;101692.39;1743934;81;25956;-83
2022/11/26 11:21:37;;;;;;;69.72;29.27;;;;;;;2.20;94.88;101690.72;1746089;80;26580;-83
2022/11/26 11:24:26;;;;;;;73.65;28.55;;;;;;;2.25;94.86;101692.55;1730538;81;25830;-83
2022/11/26 11:26:56;;;;;;;72.42;29.55;;;;;;;2.26;94.52;101694.25;1762758;81;25303;-83
2022/11/26 11:29:35;;;;;;;63.48;26.20;;;;;;;2.28;94.71;101691.88;1753802;80;28226;-83
2022/11/26 11:32:05;;;;;;;71.37;26.20;;;;;;;2.34;94.72;101694.09;1742921;81;25872;-82
2022/11/26 11:34:39;;;;;;;86.47;34.77;;;;;;;2.34;94.42;101700.70;1750986;80;25782;-84